Time;durP1;ratioP1;P1;durP2;ratioP2;P2;SDS_P1;SDS_P2;PMS_P1;PMS_P2;Temp;Humidity;BMP_temperature;BMP_pressure;BME280_temperature;BME280_humidity;BME280_pressure;Samples;Min_cycle;Max_cycle;Signal;HPM_P1;HPM_P2
2022/02/20 00:00:07;;;;;;;;;;;23.00;39.70;;;;;;683540;29;1089;-86
2022/02/20 00:00:28;;;;;;;;;;;23.00;39.60;;;;;;683365;29;1343;-87
2022/02/20 00:00:48;;;;;;;;;;;23.00;39.80;;;;;;683460;29;1131;-84
2022/02/20 00:01:09;;;;;;;;;;;23.00;39.70;;;;;;684240;29;1092;-81
2022/02/20 00:01:30;;;;;;;;;;;23.00;39.70;;;;;;686786;29;918;-81
2022/02/20 00:01:53;;;;;;;;;;;23.00;39.40;;;;;;686861;29;1069;-79
2022/02/20 00:02:16;;;;;;;;;;;23.00;39.40;;;;;;686835;29;830;-79
2022/02/20 00:02:36;;;;;;;;;;;23.00;39.60;;;;;;686693;28;791;-81
2022/02/20 00:02:57;;;;;;;;;;;23.00;39.60;;;;;;686820;29;1045;-81
2022/02/20 00:03:17;;;;;;;;;;;23.00;39.40;;;;;;683975;29;1109;-81
2022/02/20 00:03:38;;;;;;;;;;;23.00;39.50;;;;;;683853;29;1091;-79
2022/02/20 00:04:05;;;;;;;;;;;23.00;39.50;;;;;;684110;29;1016;-79
2022/02/20 00:04:25;;;;;;;;;;;23.00;39.50;;;;;;684076;29;1480;-84
2022/02/20 00:04:46;;;;;;;;;;;23.00;39.50;;;;;;684192;29;1026;-81
2022/02/20 00:05:06;;;;;;;;;;;23.00;39.30;;;;;;685215;29;1071;-81
2022/02/20 00:05:27;;;;;;;;;;;23.00;39.60;;;;;;684169;29;1291;-81
2022/02/20 00:05:48;;;;;;;;;;;23.00;39.70;;;;;;684141;29;1061;-80
2022/02/20 00:06:08;;;;;;;;;;;23.00;39.50;;;;;;683952;29;883;-79
2022/02/20 00:06:29;;;;;;;;;;;23.00;39.80;;;;;;684045;29;1033;-79
2022/02/20 00:06:49;;;;;;;;;;;23.00;39.60;;;;;;684056;29;1037;-79
2022/02/20 00:07:10;;;;;;;;;;;23.00;39.40;;;;;;683984;29;1084;-79
2022/02/20 00:07:30;;;;;;;;;;;23.00;39.50;;;;;;684024;29;1009;-79
2022/02/20 00:07:51;;;;;;;;;;;23.00;39.40;;;;;;684031;29;1085;-79
2022/02/20 00:08:12;;;;;;;;;;;23.00;39.50;;;;;;683625;29;1053;-84
2022/02/20 00:08:32;;;;;;;;;;;23.00;39.50;;;;;;682033;29;898;-85
2022/02/20 00:08:53;;;;;;;;;;;23.00;39.30;;;;;;682058;29;1383;-82
2022/02/20 00:09:13;;;;;;;;;;;23.00;39.50;;;;;;681094;29;823;-84
2022/02/20 00:09:36;;;;;;;;;;;23.00;39.50;;;;;;680925;29;811;-83
2022/02/20 00:09:56;;;;;;;;;;;23.00;39.60;;;;;;680865;29;882;-84
2022/02/20 00:10:17;;;;;;;;;;;23.00;39.70;;;;;;680763;29;1908;-84
2022/02/20 00:10:37;;;;;;;;;;;23.00;39.70;;;;;;678380;29;1385;-84
2022/02/20 00:10:58;;;;;;;;;;;23.00;39.80;;;;;;680681;29;1210;-84
2022/02/20 00:11:18;;;;;;;;;;;23.00;39.50;;;;;;680934;29;1035;-85
2022/02/20 00:11:39;;;;;;;;;;;23.00;39.30;;;;;;680628;29;946;-85
2022/02/20 00:11:59;;;;;;;;;;;23.00;39.40;;;;;;680691;29;843;-85
2022/02/20 00:12:20;;;;;;;;;;;23.00;39.60;;;;;;680796;29;871;-84
2022/02/20 00:12:40;;;;;;;;;;;23.00;39.50;;;;;;680804;29;1092;-84
2022/02/20 00:13:03;;;;;;;;;;;23.00;39.50;;;;;;683507;29;807;-85
2022/02/20 00:13:23;;;;;;;;;;;23.00;39.40;;;;;;683497;29;827;-82
2022/02/20 00:13:44;;;;;;;;;;;23.00;39.60;;;;;;683563;29;811;-83
2022/02/20 00:14:04;;;;;;;;;;;23.00;39.60;;;;;;683464;29;938;-85
2022/02/20 00:14:25;;;;;;;;;;;23.00;39.90;;;;;;683495;29;858;-85
2022/02/20 00:14:46;;;;;;;;;;;23.00;40.10;;;;;;683619;29;902;-85
2022/02/20 00:15:06;;;;;;;;;;;23.00;40.40;;;;;;683488;29;850;-84
2022/02/20 00:15:27;;;;;;;;;;;23.00;40.50;;;;;;683540;29;855;-85
2022/02/20 00:15:47;;;;;;;;;;;23.00;40.50;;;;;;683448;29;1424;-85
2022/02/20 00:16:08;;;;;;;;;;;23.00;40.50;;;;;;683514;29;911;-84
2022/02/20 00:16:29;;;;;;;;;;;23.00;40.50;;;;;;680470;29;1421;-84
2022/02/20 00:16:52;;;;;;;;;;;23.10;40.50;;;;;;680701;29;906;-84
2022/02/20 00:17:12;;;;;;;;;;;23.10;40.50;;;;;;680227;29;1113;-85
2022/02/20 00:17:33;;;;;;;;;;;23.10;40.50;;;;;;680456;29;913;-84
2022/02/20 00:17:54;;;;;;;;;;;23.10;40.50;;;;;;680719;29;843;-82
2022/02/20 00:18:15;;;;;;;;;;;23.10;40.50;;;;;;680749;29;1330;-85
2022/02/20 00:18:35;;;;;;;;;;;23.10;40.50;;;;;;680662;29;795;-85
2022/02/20 00:18:56;;;;;;;;;;;23.10;40.50;;;;;;681095;29;842;-85
2022/02/20 00:19:17;;;;;;;;;;;23.10;40.40;;;;;;683590;29;788;-85
2022/02/20 00:19:37;;;;;;;;;;;23.10;40.50;;;;;;683485;29;850;-84
2022/02/20 00:19:58;;;;;;;;;;;23.10;40.50;;;;;;683487;29;1328;-85
2022/02/20 00:20:18;;;;;;;;;;;23.10;40.40;;;;;;683626;29;803;-86
2022/02/20 00:20:39;;;;;;;;;;;23.10;40.40;;;;;;683423;29;930;-84
2022/02/20 00:21:00;;;;;;;;;;;23.10;40.40;;;;;;683565;29;866;-85
2022/02/20 00:21:21;;;;;;;;;;;23.10;40.40;;;;;;683597;29;827;-85
2022/02/20 00:21:41;;;;;;;;;;;23.10;40.40;;;;;;680501;29;1208;-85
2022/02/20 00:22:02;;;;;;;;;;;23.10;40.40;;;;;;677958;29;1429;-87
2022/02/20 00:22:22;;;;;;;;;;;23.10;40.30;;;;;;678139;29;827;-85
2022/02/20 00:22:43;;;;;;;;;;;23.10;40.40;;;;;;678108;29;804;-81
2022/02/20 00:23:04;;;;;;;;;;;23.10;40.30;;;;;;678013;29;1460;-83
2022/02/20 00:23:24;;;;;;;;;;;23.10;40.30;;;;;;678394;29;808;-84
2022/02/20 00:23:45;;;;;;;;;;;23.20;40.40;;;;;;681101;29;779;-85
2022/02/20 00:24:06;;;;;;;;;;;23.20;40.30;;;;;;683588;29;803;-85
2022/02/20 00:24:27;;;;;;;;;;;23.10;40.40;;;;;;680630;29;1218;-85
2022/02/20 00:24:47;;;;;;;;;;;23.10;40.30;;;;;;680900;29;835;-83
2022/02/20 00:25:08;;;;;;;;;;;23.10;40.30;;;;;;680689;29;1045;-84
2022/02/20 00:25:34;;;;;;;;;;;23.20;40.30;;;;;;678015;29;1343;-84
2022/02/20 00:25:55;;;;;;;;;;;23.20;40.30;;;;;;675550;29;1311;-85
2022/02/20 00:26:16;;;;;;;;;;;23.20;40.30;;;;;;676738;29;879;-85
2022/02/20 00:26:36;;;;;;;;;;;23.20;40.30;;;;;;677960;29;1198;-85
2022/02/20 00:26:57;;;;;;;;;;;23.20;40.30;;;;;;678238;29;824;-84
2022/02/20 00:27:17;;;;;;;;;;;23.20;40.30;;;;;;679203;29;847;-85
2022/02/20 00:27:38;;;;;;;;;;;23.20;40.30;;;;;;678009;29;871;-85
2022/02/20 00:27:59;;;;;;;;;;;23.20;40.30;;;;;;678083;29;871;-85
2022/02/20 00:28:20;;;;;;;;;;;23.20;40.30;;;;;;678433;29;808;-85
2022/02/20 00:28:40;;;;;;;;;;;23.20;40.30;;;;;;677871;29;1018;-85
2022/02/20 00:29:01;;;;;;;;;;;23.20;40.30;;;;;;678010;29;862;-84
2022/02/20 00:29:21;;;;;;;;;;;23.20;40.30;;;;;;678359;29;1431;-85
2022/02/20 00:29:42;;;;;;;;;;;23.20;40.30;;;;;;680642;29;906;-84
2022/02/20 00:30:03;;;;;;;;;;;23.20;40.30;;;;;;678018;29;1451;-84
2022/02/20 00:30:24;;;;;;;;;;;23.20;40.30;;;;;;675555;29;1895;-84
2022/02/20 00:30:45;;;;;;;;;;;23.20;40.20;;;;;;677986;29;1399;-84
2022/02/20 00:31:05;;;;;;;;;;;23.20;40.30;;;;;;677950;29;878;-84
2022/02/20 00:31:26;;;;;;;;;;;23.20;40.30;;;;;;675310;29;1113;-84
2022/02/20 00:31:46;;;;;;;;;;;23.20;40.30;;;;;;675567;29;1416;-84
2022/02/20 00:32:07;;;;;;;;;;;23.20;40.20;;;;;;675281;29;1227;-84
2022/02/20 00:32:28;;;;;;;;;;;23.20;40.20;;;;;;672722;29;1124;-85
2022/02/20 00:32:48;;;;;;;;;;;23.20;40.20;;;;;;670194;29;1540;-85
2022/02/20 00:33:09;;;;;;;;;;;23.20;40.20;;;;;;670175;29;1463;-84
2022/02/20 00:33:30;;;;;;;;;;;23.20;40.20;;;;;;670578;29;839;-84
2022/02/20 00:33:50;;;;;;;;;;;23.20;40.20;;;;;;673196;29;910;-85
2022/02/20 00:34:11;;;;;;;;;;;23.20;40.10;;;;;;675637;29;886;-83
2022/02/20 00:34:31;;;;;;;;;;;23.20;40.20;;;;;;678290;29;815;-84
2022/02/20 00:34:52;;;;;;;;;;;23.20;40.20;;;;;;680896;29;787;-83
2022/02/20 00:35:12;;;;;;;;;;;23.20;40.20;;;;;;680749;29;839;-85
2022/02/20 00:35:33;;;;;;;;;;;23.20;40.20;;;;;;680775;29;1346;-84
2022/02/20 00:35:54;;;;;;;;;;;23.20;40.20;;;;;;680653;29;1312;-82
2022/02/20 00:36:14;;;;;;;;;;;23.20;40.10;;;;;;678016;29;1300;-85
2022/02/20 00:36:35;;;;;;;;;;;23.20;40.10;;;;;;677985;29;831;-84
2022/02/20 00:36:55;;;;;;;;;;;23.20;40.10;;;;;;677981;29;847;-85
2022/02/20 00:37:16;;;;;;;;;;;23.20;40.10;;;;;;678133;29;886;-85
2022/02/20 00:37:36;;;;;;;;;;;23.20;40.00;;;;;;678019;29;866;-85
2022/02/20 00:37:57;;;;;;;;;;;23.20;40.10;;;;;;678265;29;890;-85
2022/02/20 00:38:18;;;;;;;;;;;23.20;40.10;;;;;;680907;29;780;-83
2022/02/20 00:38:38;;;;;;;;;;;23.20;40.00;;;;;;680738;29;787;-84
2022/02/20 00:38:59;;;;;;;;;;;23.20;40.10;;;;;;680812;29;823;-84
2022/02/20 00:39:19;;;;;;;;;;;23.20;40.10;;;;;;680904;29;903;-83
2022/02/20 00:39:40;;;;;;;;;;;23.20;40.10;;;;;;680716;29;858;-85
2022/02/20 00:40:02;;;;;;;;;;;23.20;40.10;;;;;;680741;29;891;-85
2022/02/20 00:40:23;;;;;;;;;;;23.20;40.10;;;;;;680786;29;815;-82
2022/02/20 00:40:44;;;;;;;;;;;23.20;40.10;;;;;;680868;29;859;-85
2022/02/20 00:41:04;;;;;;;;;;;23.20;40.00;;;;;;680744;29;819;-85
2022/02/20 00:41:25;;;;;;;;;;;23.20;40.10;;;;;;680835;29;866;-84
2022/02/20 00:41:45;;;;;;;;;;;23.20;40.00;;;;;;680903;29;775;-85
2022/02/20 00:42:06;;;;;;;;;;;23.20;40.10;;;;;;680736;29;839;-85
2022/02/20 00:42:27;;;;;;;;;;;23.20;40.10;;;;;;680658;29;1082;-85
2022/02/20 00:42:47;;;;;;;;;;;23.20;40.00;;;;;;680858;29;918;-85
2022/02/20 00:43:08;;;;;;;;;;;23.20;40.10;;;;;;680662;29;1340;-85
2022/02/20 00:43:29;;;;;;;;;;;23.20;40.10;;;;;;680760;29;871;-85
2022/02/20 00:43:51;;;;;;;;;;;23.20;40.00;;;;;;680799;29;883;-86
2022/02/20 00:44:11;;;;;;;;;;;23.20;40.00;;;;;;680724;29;1327;-85
2022/02/20 00:44:32;;;;;;;;;;;23.20;40.00;;;;;;680706;29;1357;-85
2022/02/20 00:44:52;;;;;;;;;;;23.20;40.00;;;;;;680838;29;981;-85
2022/02/20 00:45:13;;;;;;;;;;;23.20;40.00;;;;;;680845;29;894;-82
2022/02/20 00:45:33;;;;;;;;;;;23.20;40.00;;;;;;681598;29;867;-85
2022/02/20 00:45:54;;;;;;;;;;;23.20;40.00;;;;;;681146;29;850;-84
2022/02/20 00:46:15;;;;;;;;;;;23.20;40.00;;;;;;681424;29;839;-85
2022/02/20 00:46:35;;;;;;;;;;;23.20;40.00;;;;;;681388;29;851;-85
2022/02/20 00:46:56;;;;;;;;;;;23.20;40.00;;;;;;681217;29;1278;-84
2022/02/20 00:47:16;;;;;;;;;;;23.20;40.00;;;;;;681545;29;926;-85
2022/02/20 00:47:37;;;;;;;;;;;23.20;39.90;;;;;;681374;29;842;-86
2022/02/20 00:47:57;;;;;;;;;;;23.20;40.00;;;;;;681307;29;859;-85
2022/02/20 00:48:20;;;;;;;;;;;23.20;40.00;;;;;;681297;29;1045;-84
2022/02/20 00:48:41;;;;;;;;;;;23.20;39.90;;;;;;681196;29;842;-84
2022/02/20 00:49:02;;;;;;;;;;;23.20;39.90;;;;;;681049;29;926;-84
2022/02/20 00:49:23;;;;;;;;;;;23.20;39.90;;;;;;681218;29;870;-84
2022/02/20 00:49:43;;;;;;;;;;;23.30;39.90;;;;;;681124;29;1354;-83
2022/02/20 00:50:04;;;;;;;;;;;23.20;39.90;;;;;;681067;29;886;-85
2022/02/20 00:50:26;;;;;;;;;;;23.20;39.80;;;;;;680944;29;1960;-83
2022/02/20 00:50:47;;;;;;;;;;;23.20;39.90;;;;;;681053;29;788;-84
2022/02/20 00:51:08;;;;;;;;;;;23.20;40.00;;;;;;680660;29;858;-85
2022/02/20 00:51:28;;;;;;;;;;;23.20;40.00;;;;;;680787;29;894;-84
2022/02/20 00:51:49;;;;;;;;;;;23.30;40.00;;;;;;680898;29;1326;-84
2022/02/20 00:52:09;;;;;;;;;;;23.20;39.90;;;;;;680781;29;803;-85
2022/02/20 00:52:30;;;;;;;;;;;23.20;40.00;;;;;;680783;29;930;-84
2022/02/20 00:52:50;;;;;;;;;;;23.20;39.90;;;;;;680931;29;800;-85
2022/02/20 00:53:11;;;;;;;;;;;23.20;40.00;;;;;;680614;29;1311;-84
2022/02/20 00:53:32;;;;;;;;;;;23.20;40.00;;;;;;680813;29;921;-85
2022/02/20 00:53:52;;;;;;;;;;;23.20;40.00;;;;;;680621;29;1222;-84
2022/02/20 00:54:13;;;;;;;;;;;23.20;40.00;;;;;;680499;29;816;-85
2022/02/20 00:54:33;;;;;;;;;;;23.20;40.00;;;;;;680669;29;815;-84
2022/02/20 00:54:54;;;;;;;;;;;23.20;40.00;;;;;;680708;29;973;-84
2022/02/20 00:55:14;;;;;;;;;;;23.20;40.00;;;;;;680592;29;918;-84
2022/02/20 00:55:35;;;;;;;;;;;23.20;40.00;;;;;;680608;29;887;-84
2022/02/20 00:55:56;;;;;;;;;;;23.20;40.00;;;;;;680695;29;855;-85
2022/02/20 00:56:16;;;;;;;;;;;23.20;40.00;;;;;;680879;29;792;-83
2022/02/20 00:56:37;;;;;;;;;;;23.20;40.00;;;;;;677969;29;1407;-85
2022/02/20 00:56:57;;;;;;;;;;;23.20;40.00;;;;;;677893;29;815;-84
2022/02/20 00:57:20;;;;;;;;;;;23.20;40.00;;;;;;678063;29;780;-84
2022/02/20 00:57:41;;;;;;;;;;;23.20;40.10;;;;;;678014;29;796;-84
2022/02/20 00:58:02;;;;;;;;;;;23.20;40.00;;;;;;677892;29;792;-84
2022/02/20 00:58:23;;;;;;;;;;;23.20;40.00;;;;;;678716;29;815;-83
2022/02/20 00:58:43;;;;;;;;;;;23.10;40.00;;;;;;680787;29;815;-84
2022/02/20 00:59:04;;;;;;;;;;;23.10;40.00;;;;;;680658;29;815;-84
2022/02/20 00:59:24;;;;;;;;;;;23.20;40.10;;;;;;680590;29;1335;-83
2022/02/20 00:59:45;;;;;;;;;;;23.10;40.00;;;;;;680872;29;796;-84
2022/02/20 01:00:07;;;;;;;;;;;23.10;40.00;;;;;;677791;29;1172;-84
2022/02/20 01:00:28;;;;;;;;;;;23.10;40.00;;;;;;677912;29;1267;-84
2022/02/20 01:00:49;;;;;;;;;;;23.10;40.00;;;;;;678174;29;914;-84
2022/02/20 01:01:10;;;;;;;;;;;23.20;40.00;;;;;;677754;29;1346;-85
2022/02/20 01:01:31;;;;;;;;;;;23.10;40.00;;;;;;677708;29;1468;-85
2022/02/20 01:01:51;;;;;;;;;;;23.10;40.00;;;;;;678652;29;815;-84
2022/02/20 01:02:12;;;;;;;;;;;23.10;40.00;;;;;;680526;29;834;-85
2022/02/20 01:02:33;;;;;;;;;;;23.10;40.00;;;;;;680524;29;934;-85
2022/02/20 01:02:53;;;;;;;;;;;23.10;40.00;;;;;;680173;29;1315;-85
2022/02/20 01:03:14;;;;;;;;;;;23.10;40.00;;;;;;678460;29;791;-85
2022/02/20 01:03:34;;;;;;;;;;;23.10;40.00;;;;;;677818;29;1320;-84
2022/02/20 01:03:55;;;;;;;;;;;23.10;40.00;;;;;;675246;29;1215;-84
2022/02/20 01:04:15;;;;;;;;;;;23.10;40.00;;;;;;675481;29;812;-84
2022/02/20 01:04:36;;;;;;;;;;;23.10;40.10;;;;;;675282;29;879;-84
2022/02/20 01:04:57;;;;;;;;;;;23.10;39.90;;;;;;675361;29;844;-85
2022/02/20 01:05:17;;;;;;;;;;;23.10;40.00;;;;;;675721;29;891;-84
2022/02/20 01:05:38;;;;;;;;;;;23.10;40.00;;;;;;678191;29;1445;-85
2022/02/20 01:05:59;;;;;;;;;;;23.10;40.00;;;;;;680684;29;796;-85
2022/02/20 01:06:19;;;;;;;;;;;23.10;40.00;;;;;;680834;29;851;-85
2022/02/20 01:06:40;;;;;;;;;;;23.10;40.00;;;;;;680706;29;804;-84
2022/02/20 01:07:00;;;;;;;;;;;23.10;40.00;;;;;;680701;29;938;-83
2022/02/20 01:07:22;;;;;;;;;;;23.10;40.00;;;;;;680866;29;820;-84
2022/02/20 01:07:42;;;;;;;;;;;23.10;40.00;;;;;;677689;29;1292;-83
2022/02/20 01:08:03;;;;;;;;;;;23.10;40.00;;;;;;677963;29;862;-85
2022/02/20 01:08:24;;;;;;;;;;;23.10;40.00;;;;;;677885;29;787;-83
2022/02/20 01:08:44;;;;;;;;;;;23.10;41.00;;;;;;678061;29;975;-84
2022/02/20 01:09:05;;;;;;;;;;;23.10;40.00;;;;;;677876;29;757;-83
2022/02/20 01:09:25;;;;;;;;;;;23.10;40.00;;;;;;678175;29;1462;-85
2022/02/20 01:09:46;;;;;;;;;;;23.10;39.90;;;;;;680629;29;806;-85
2022/02/20 01:10:07;;;;;;;;;;;23.10;39.80;;;;;;680486;29;787;-86
2022/02/20 01:10:28;;;;;;;;;;;23.10;39.80;;;;;;680451;29;1890;-85
2022/02/20 01:10:49;;;;;;;;;;;23.10;39.90;;;;;;680673;29;844;-85
2022/02/20 01:11:09;;;;;;;;;;;23.00;40.00;;;;;;680581;29;918;-85
2022/02/20 01:11:30;;;;;;;;;;;23.00;40.00;;;;;;680648;29;1438;-86
2022/02/20 01:11:50;;;;;;;;;;;23.00;40.00;;;;;;680571;29;1208;-86
2022/02/20 01:12:11;;;;;;;;;;;23.00;39.90;;;;;;677765;29;1208;-85
2022/02/20 01:12:32;;;;;;;;;;;23.00;39.90;;;;;;677743;29;1318;-86
2022/02/20 01:12:52;;;;;;;;;;;23.00;39.90;;;;;;678035;29;878;-87
2022/02/20 01:13:13;;;;;;;;;;;23.00;39.90;;;;;;677929;29;859;-85
2022/02/20 01:13:33;;;;;;;;;;;23.00;39.90;;;;;;677920;29;891;-84
2022/02/20 01:13:54;;;;;;;;;;;23.00;39.80;;;;;;678186;29;887;-83
2022/02/20 01:14:15;;;;;;;;;;;23.00;39.80;;;;;;680698;29;799;-84
2022/02/20 01:14:35;;;;;;;;;;;23.00;39.80;;;;;;680769;29;800;-85
2022/02/20 01:14:56;;;;;;;;;;;23.00;39.60;;;;;;680744;29;776;-83
2022/02/20 01:15:18;;;;;;;;;;;23.00;39.80;;;;;;680740;29;808;-87
2022/02/20 01:15:38;;;;;;;;;;;23.00;40.00;;;;;;680764;29;839;-84
2022/02/20 01:15:59;;;;;;;;;;;23.00;39.90;;;;;;680620;29;1297;-85
2022/02/20 01:16:20;;;;;;;;;;;23.00;39.90;;;;;;680863;29;840;-87
2022/02/20 01:16:41;;;;;;;;;;;23.00;39.80;;;;;;680487;29;1426;-84
2022/02/20 01:17:02;;;;;;;;;;;23.00;39.70;;;;;;677731;29;1203;-85
2022/02/20 01:17:22;;;;;;;;;;;23.00;39.80;;;;;;678013;29;891;-87
2022/02/20 01:17:43;;;;;;;;;;;23.00;39.80;;;;;;677815;29;816;-81
2022/02/20 01:18:04;;;;;;;;;;;23.00;39.80;;;;;;675228;29;1294;-84
2022/02/20 01:18:24;;;;;;;;;;;23.00;40.90;;;;;;675133;29;1199;-84
2022/02/20 01:18:45;;;;;;;;;;;23.00;39.80;;;;;;675665;29;895;-84
2022/02/20 01:19:05;;;;;;;;;;;23.00;39.90;;;;;;677905;29;871;-84
2022/02/20 01:19:26;;;;;;;;;;;23.00;39.90;;;;;;677877;29;1442;-85
2022/02/20 01:19:48;;;;;;;;;;;23.00;40.00;;;;;;678004;29;867;-85
2022/02/20 01:20:09;;;;;;;;;;;23.00;39.90;;;;;;678448;29;846;-85
2022/02/20 01:20:29;;;;;;;;;;;23.00;39.70;;;;;;677762;29;1105;-85
2022/02/20 01:20:50;;;;;;;;;;;23.00;39.60;;;;;;678031;29;495;-85
2022/02/20 01:21:10;;;;;;;;;;;23.00;39.50;;;;;;677912;29;812;-85
2022/02/20 01:21:31;;;;;;;;;;;23.00;39.60;;;;;;677913;29;887;-83
2022/02/20 01:21:52;;;;;;;;;;;23.00;39.60;;;;;;678027;29;827;-85
2022/02/20 01:22:12;;;;;;;;;;;23.00;39.60;;;;;;678208;29;899;-86
2022/02/20 01:22:33;;;;;;;;;;;23.00;39.50;;;;;;680615;29;910;-85
2022/02/20 01:22:53;;;;;;;;;;;23.00;39.50;;;;;;680823;29;796;-84
2022/02/20 01:23:14;;;;;;;;;;;23.00;39.70;;;;;;680810;29;835;-84
2022/02/20 01:23:34;;;;;;;;;;;23.00;39.60;;;;;;680612;29;1307;-84
2022/02/20 01:23:55;;;;;;;;;;;23.00;39.70;;;;;;680691;29;918;-84
2022/02/20 01:24:16;;;;;;;;;;;23.00;39.50;;;;;;680885;29;922;-83
2022/02/20 01:24:36;;;;;;;;;;;23.00;39.60;;;;;;680644;29;784;-83
2022/02/20 01:24:57;;;;;;;;;;;23.00;39.80;;;;;;680764;29;792;-84
2022/02/20 01:25:17;;;;;;;;;;;23.00;39.70;;;;;;680759;29;875;-85
2022/02/20 01:25:38;;;;;;;;;;;23.00;39.60;;;;;;680675;29;874;-84
2022/02/20 01:25:58;;;;;;;;;;;23.00;39.70;;;;;;680662;29;804;-85
2022/02/20 01:26:19;;;;;;;;;;;23.00;39.70;;;;;;680710;29;816;-83
2022/02/20 01:26:39;;;;;;;;;;;23.00;39.70;;;;;;680583;29;812;-84
2022/02/20 01:27:00;;;;;;;;;;;23.00;39.60;;;;;;680698;29;894;-84
2022/02/20 01:27:21;;;;;;;;;;;23.00;39.80;;;;;;680853;29;875;-85
2022/02/20 01:27:42;;;;;;;;;;;23.00;39.70;;;;;;680286;29;1123;-83
2022/02/20 01:28:02;;;;;;;;;;;22.90;39.50;;;;;;680485;29;792;-85
2022/02/20 01:28:23;;;;;;;;;;;23.00;39.60;;;;;;680558;29;922;-80
2022/02/20 01:28:44;;;;;;;;;;;23.00;39.60;;;;;;677574;29;1578;-84
2022/02/20 01:29:04;;;;;;;;;;;23.00;39.60;;;;;;677612;29;954;-82
2022/02/20 01:29:25;;;;;;;;;;;23.00;39.80;;;;;;677578;29;907;-84
2022/02/20 01:29:46;;;;;;;;;;;23.00;39.80;;;;;;677831;29;1331;-83
2022/02/20 01:30:06;;;;;;;;;;;23.00;39.90;;;;;;677728;29;879;-83
2022/02/20 01:30:27;;;;;;;;;;;23.00;39.70;;;;;;678108;29;1960;-83
2022/02/20 01:30:48;;;;;;;;;;;23.00;39.80;;;;;;680620;29;862;-84
2022/02/20 01:31:08;;;;;;;;;;;23.00;39.90;;;;;;680496;29;962;-84
2022/02/20 01:31:29;;;;;;;;;;;23.00;39.70;;;;;;680484;29;910;-83
2022/02/20 01:31:49;;;;;;;;;;;23.00;39.60;;;;;;677962;29;1207;-83
2022/02/20 01:32:10;;;;;;;;;;;22.90;39.80;;;;;;680519;29;922;-84
2022/02/20 01:32:31;;;;;;;;;;;22.90;39.70;;;;;;680463;29;846;-83
2022/02/20 01:32:51;;;;;;;;;;;23.00;39.80;;;;;;680573;29;890;-84
2022/02/20 01:33:12;;;;;;;;;;;22.90;39.80;;;;;;680512;29;855;-85
2022/02/20 01:33:32;;;;;;;;;;;22.90;39.60;;;;;;678059;29;1374;-85
2022/02/20 01:33:53;;;;;;;;;;;23.00;39.90;;;;;;680632;29;834;-81
2022/02/20 01:34:13;;;;;;;;;;;22.90;39.70;;;;;;680472;29;875;-84
2022/02/20 01:34:34;;;;;;;;;;;23.00;39.70;;;;;;680430;29;875;-84
2022/02/20 01:34:54;;;;;;;;;;;23.00;39.90;;;;;;680438;29;942;-84
2022/02/20 01:35:16;;;;;;;;;;;22.90;39.80;;;;;;680738;29;862;-85
2022/02/20 01:35:36;;;;;;;;;;;22.90;39.70;;;;;;683218;29;1001;-85
2022/02/20 01:35:57;;;;;;;;;;;22.90;39.50;;;;;;680285;29;1464;-84
2022/02/20 01:36:18;;;;;;;;;;;22.90;39.70;;;;;;680653;29;1315;-84
2022/02/20 01:36:38;;;;;;;;;;;22.90;39.60;;;;;;680417;29;844;-85
2022/02/20 01:36:59;;;;;;;;;;;23.00;39.50;;;;;;680423;29;870;-84
2022/02/20 01:37:19;;;;;;;;;;;23.00;39.60;;;;;;680578;29;808;-84
2022/02/20 01:37:40;;;;;;;;;;;23.00;39.60;;;;;;680643;29;1429;-85
2022/02/20 01:38:01;;;;;;;;;;;22.90;39.60;;;;;;683240;29;875;-84
2022/02/20 01:38:21;;;;;;;;;;;23.00;39.50;;;;;;683433;29;791;-84
2022/02/20 01:38:42;;;;;;;;;;;22.90;39.50;;;;;;683303;29;898;-84
2022/02/20 01:39:02;;;;;;;;;;;22.90;39.60;;;;;;683265;29;809;-85
2022/02/20 01:39:23;;;;;;;;;;;22.90;39.50;;;;;;683363;29;597;-81
2022/02/20 01:39:43;;;;;;;;;;;23.00;39.60;;;;;;683295;29;1330;-83
2022/02/20 01:40:04;;;;;;;;;;;22.90;39.80;;;;;;683229;29;489;-83
2022/02/20 01:40:27;;;;;;;;;;;22.90;39.80;;;;;;683179;29;976;-84
2022/02/20 01:40:49;;;;;;;;;;;22.90;39.60;;;;;;683326;29;890;-85
2022/02/20 01:41:10;;;;;;;;;;;23.00;39.80;;;;;;683276;29;854;-84
2022/02/20 01:41:30;;;;;;;;;;;22.90;39.60;;;;;;683250;29;811;-84
2022/02/20 01:41:51;;;;;;;;;;;22.90;39.60;;;;;;683267;29;1412;-85
2022/02/20 01:42:12;;;;;;;;;;;22.90;39.50;;;;;;683348;29;795;-84
2022/02/20 01:42:34;;;;;;;;;;;22.90;39.50;;;;;;683133;29;1086;-85
2022/02/20 01:42:54;;;;;;;;;;;22.90;39.70;;;;;;683210;29;803;-83
2022/02/20 01:43:15;;;;;;;;;;;22.90;39.80;;;;;;683408;29;954;-85
2022/02/20 01:43:36;;;;;;;;;;;22.90;39.80;;;;;;683248;29;823;-85
2022/02/20 01:43:57;;;;;;;;;;;22.90;39.70;;;;;;683239;29;788;-84
2022/02/20 01:44:17;;;;;;;;;;;22.90;39.80;;;;;;683269;29;895;-84
2022/02/20 01:44:38;;;;;;;;;;;23.00;39.70;;;;;;683334;29;783;-85
2022/02/20 01:44:58;;;;;;;;;;;22.90;39.60;;;;;;683218;29;927;-85
2022/02/20 01:45:21;;;;;;;;;;;22.90;39.70;;;;;;683376;29;796;-85
2022/02/20 01:45:42;;;;;;;;;;;22.90;39.80;;;;;;683248;29;788;-84
2022/02/20 01:46:03;;;;;;;;;;;22.90;39.80;;;;;;683296;29;819;-85
2022/02/20 01:46:23;;;;;;;;;;;22.90;39.80;;;;;;683310;29;814;-84
2022/02/20 01:46:45;;;;;;;;;;;22.90;39.70;;;;;;683427;29;776;-83
2022/02/20 01:47:07;;;;;;;;;;;22.90;39.60;;;;;;683247;29;796;-85
2022/02/20 01:47:29;;;;;;;;;;;22.90;39.50;;;;;;683213;29;847;-84
2022/02/20 01:47:49;;;;;;;;;;;22.90;39.50;;;;;;683320;29;831;-84
2022/02/20 01:48:10;;;;;;;;;;;22.90;39.60;;;;;;683236;29;883;-84
2022/02/20 01:48:35;;;;;;;;;;;22.90;39.50;;;;;;683194;29;824;-84
2022/02/20 01:48:55;;;;;;;;;;;22.90;39.50;;;;;;683300;29;741;-84
2022/02/20 01:49:16;;;;;;;;;;;22.90;39.60;;;;;;683355;29;878;-85
2022/02/20 01:49:37;;;;;;;;;;;22.90;39.60;;;;;;683284;29;819;-85
2022/02/20 01:49:58;;;;;;;;;;;22.90;39.60;;;;;;683192;29;863;-84
2022/02/20 01:50:19;;;;;;;;;;;22.90;39.50;;;;;;683258;29;1970;-84
2022/02/20 01:50:39;;;;;;;;;;;22.90;39.50;;;;;;683246;29;832;-84
2022/02/20 01:51:00;;;;;;;;;;;22.90;39.60;;;;;;683262;29;855;-84
2022/02/20 01:51:21;;;;;;;;;;;22.90;39.60;;;;;;683298;29;899;-86
2022/02/20 01:51:41;;;;;;;;;;;22.90;39.50;;;;;;683229;29;887;-84
2022/02/20 01:52:02;;;;;;;;;;;22.90;39.60;;;;;;683191;29;870;-84
2022/02/20 01:52:23;;;;;;;;;;;22.90;39.60;;;;;;680477;29;1361;-84
2022/02/20 01:52:44;;;;;;;;;;;22.90;39.50;;;;;;680529;29;839;-84
2022/02/20 01:53:05;;;;;;;;;;;22.90;39.50;;;;;;680351;29;882;-84
2022/02/20 01:53:25;;;;;;;;;;;22.90;39.60;;;;;;677656;29;1502;-83
2022/02/20 01:53:46;;;;;;;;;;;22.90;39.60;;;;;;677916;29;867;-84
2022/02/20 01:54:07;;;;;;;;;;;22.90;39.50;;;;;;678124;29;925;-83
2022/02/20 01:54:27;;;;;;;;;;;22.90;39.60;;;;;;680365;29;827;-84
2022/02/20 01:54:48;;;;;;;;;;;22.90;39.60;;;;;;680549;29;792;-84
2022/02/20 01:55:09;;;;;;;;;;;22.90;40.80;;;;;;677937;29;1133;-84
2022/02/20 01:55:29;;;;;;;;;;;22.90;39.70;;;;;;680347;29;1347;-84
2022/02/20 01:55:50;;;;;;;;;;;22.90;39.60;;;;;;680486;29;911;-84
2022/02/20 01:56:11;;;;;;;;;;;22.90;40.60;;;;;;680357;29;831;-84
2022/02/20 01:56:32;;;;;;;;;;;22.90;39.50;;;;;;680401;29;883;-85
2022/02/20 01:56:54;;;;;;;;;;;22.90;39.50;;;;;;680897;29;831;-85
2022/02/20 01:57:15;;;;;;;;;;;22.90;39.60;;;;;;683275;29;804;-84
2022/02/20 01:57:36;;;;;;;;;;;22.90;39.60;;;;;;683215;29;827;-84
2022/02/20 01:57:57;;;;;;;;;;;22.90;39.60;;;;;;683149;29;811;-84
2022/02/20 01:58:18;;;;;;;;;;;22.90;39.50;;;;;;683161;29;1334;-84
2022/02/20 01:58:39;;;;;;;;;;;22.90;39.50;;;;;;683206;29;895;-83
2022/02/20 01:59:00;;;;;;;;;;;22.90;39.60;;;;;;680304;29;1092;-84
2022/02/20 01:59:22;;;;;;;;;;;22.90;39.60;;;;;;680484;29;792;-86
2022/02/20 01:59:43;;;;;;;;;;;22.90;39.60;;;;;;680342;29;803;-85
2022/02/20 02:00:07;;;;;;;;;;;22.90;39.60;;;;;;680450;29;792;-83
2022/02/20 02:00:29;;;;;;;;;;;22.90;39.70;;;;;;680281;29;1318;-84
2022/02/20 02:00:49;;;;;;;;;;;22.90;39.60;;;;;;680509;29;820;-84
2022/02/20 02:01:10;;;;;;;;;;;22.90;39.60;;;;;;680330;29;1349;-84
2022/02/20 02:01:31;;;;;;;;;;;22.90;39.60;;;;;;680492;29;788;-82
2022/02/20 02:01:53;;;;;;;;;;;22.90;39.60;;;;;;677446;29;1324;-85
2022/02/20 02:02:19;;;;;;;;;;;22.90;39.70;;;;;;678271;29;1347;-83
2022/02/20 02:02:40;;;;;;;;;;;22.90;39.70;;;;;;677686;29;1374;-84
2022/02/20 02:03:00;;;;;;;;;;;22.90;39.60;;;;;;677840;29;792;-85
2022/02/20 02:03:21;;;;;;;;;;;22.90;39.60;;;;;;677845;29;899;-85
2022/02/20 02:03:41;;;;;;;;;;;22.90;39.60;;;;;;678970;29;812;-85
2022/02/20 02:04:02;;;;;;;;;;;22.90;39.70;;;;;;680388;29;768;-84
2022/02/20 02:04:23;;;;;;;;;;;22.90;39.60;;;;;;680726;29;811;-80
2022/02/20 02:04:44;;;;;;;;;;;22.90;39.70;;;;;;683418;29;796;-84
2022/02/20 02:05:04;;;;;;;;;;;22.90;39.80;;;;;;683183;29;783;-84
2022/02/20 02:05:27;;;;;;;;;;;22.90;39.70;;;;;;680285;29;938;-84
2022/02/20 02:05:47;;;;;;;;;;;22.90;39.70;;;;;;680474;29;835;-83
2022/02/20 02:06:08;;;;;;;;;;;22.90;39.60;;;;;;680368;29;804;-85